sensor_id;sensor_type;location;lat;lon;timestamp;temperature;humidity
75799;DHT22;65035;44.726;37.764;2023-02-17T00:00:42;17.56;118.99
75799;DHT22;65035;44.726;37.764;2023-02-17T00:01:45;17.58;118.99
75799;DHT22;65035;44.726;37.764;2023-02-17T00:02:48;17.58;118.99
75799;DHT22;65035;44.726;37.764;2023-02-17T00:03:51;17.56;118.99
75799;DHT22;65035;44.726;37.764;2023-02-17T00:04:54;17.56;118.99
75799;DHT22;65035;44.726;37.764;2023-02-17T00:05:57;17.55;118.99
75799;DHT22;65035;44.726;37.764;2023-02-17T00:07:00;17.58;118.99
75799;DHT22;65035;44.726;37.764;2023-02-17T00:08:03;17.59;118.99
75799;DHT22;65035;44.726;37.764;2023-02-17T00:09:06;17.56;118.99
75799;DHT22;65035;44.726;37.764;2023-02-17T00:10:09;17.58;118.99
75799;DHT22;65035;44.726;37.764;2023-02-17T00:11:12;17.56;118.99
75799;DHT22;65035;44.726;37.764;2023-02-17T00:12:15;17.55;118.99
75799;DHT22;65035;44.726;37.764;2023-02-17T00:13:18;17.55;118.99
75799;DHT22;65035;44.726;37.764;2023-02-17T00:14:21;17.55;118.99
75799;DHT22;65035;44.726;37.764;2023-02-17T00:15:24;17.56;118.99
75799;DHT22;65035;44.726;37.764;2023-02-17T00:16:27;17.54;118.99
75799;DHT22;65035;44.726;37.764;2023-02-17T00:17:30;17.55;118.99
75799;DHT22;65035;44.726;37.764;2023-02-17T00:18:33;17.53;118.99
75799;DHT22;65035;44.726;37.764;2023-02-17T00:19:35;17.55;118.99
75799;DHT22;65035;44.726;37.764;2023-02-17T00:20:38;17.54;118.99
75799;DHT22;65035;44.726;37.764;2023-02-17T00:21:41;17.54;118.99
75799;DHT22;65035;44.726;37.764;2023-02-17T00:22:44;17.58;118.99
75799;DHT22;65035;44.726;37.764;2023-02-17T00:23:48;17.55;118.99
75799;DHT22;65035;44.726;37.764;2023-02-17T00:24:51;17.55;118.99
75799;DHT22;65035;44.726;37.764;2023-02-17T00:25:54;17.54;118.99
75799;DHT22;65035;44.726;37.764;2023-02-17T00:26:56;17.51;118.99
75799;DHT22;65035;44.726;37.764;2023-02-17T00:28:00;17.55;118.99
75799;DHT22;65035;44.726;37.764;2023-02-17T00:29:03;17.54;118.99
75799;DHT22;65035;44.726;37.764;2023-02-17T00:30:06;17.53;118.99
75799;DHT22;65035;44.726;37.764;2023-02-17T00:31:12;17.53;118.99
75799;DHT22;65035;44.726;37.764;2023-02-17T00:32:16;17.55;118.99
75799;DHT22;65035;44.726;37.764;2023-02-17T00:33:19;17.54;118.99
75799;DHT22;65035;44.726;37.764;2023-02-17T00:34:22;17.55;118.99
75799;DHT22;65035;44.726;37.764;2023-02-17T00:35:26;17.54;118.99
75799;DHT22;65035;44.726;37.764;2023-02-17T00:36:29;17.56;118.99
75799;DHT22;65035;44.726;37.764;2023-02-17T00:37:34;17.55;118.99
75799;DHT22;65035;44.726;37.764;2023-02-17T00:38:37;17.53;118.99
75799;DHT22;65035;44.726;37.764;2023-02-17T00:39:40;17.53;118.99
75799;DHT22;65035;44.726;37.764;2023-02-17T00:40:44;17.53;118.99
75799;DHT22;65035;44.726;37.764;2023-02-17T00:41:47;17.53;118.99
75799;DHT22;65035;44.726;37.764;2023-02-17T00:42:50;17.53;118.99
75799;DHT22;65035;44.726;37.764;2023-02-17T00:43:56;17.54;118.99
75799;DHT22;65035;44.726;37.764;2023-02-17T00:44:59;17.54;118.99
75799;DHT22;65035;44.726;37.764;2023-02-17T00:46:02;17.52;118.99
75799;DHT22;65035;44.726;37.764;2023-02-17T00:47:05;17.53;118.99
75799;DHT22;65035;44.726;37.764;2023-02-17T00:48:08;17.53;118.99
75799;DHT22;65035;44.726;37.764;2023-02-17T00:49:21;17.53;118.99
75799;DHT22;65035;44.726;37.764;2023-02-17T00:50:24;17.52;118.99
75799;DHT22;65035;44.726;37.764;2023-02-17T00:51:27;17.51;118.99
75799;DHT22;65035;44.726;37.764;2023-02-17T00:52:30;17.53;118.99
75799;DHT22;65035;44.726;37.764;2023-02-17T00:53:33;17.51;118.99
75799;DHT22;65035;44.726;37.764;2023-02-17T00:54:37;17.53;118.99
75799;DHT22;65035;44.726;37.764;2023-02-17T00:55:41;17.53;118.99
75799;DHT22;65035;44.726;37.764;2023-02-17T00:56:45;17.53;118.99
75799;DHT22;65035;44.726;37.764;2023-02-17T00:57:48;17.51;118.99
75799;DHT22;65035;44.726;37.764;2023-02-17T00:58:51;17.51;118.99
75799;DHT22;65035;44.726;37.764;2023-02-17T00:59:54;17.52;118.99
75799;DHT22;65035;44.726;37.764;2023-02-17T01:00:57;17.50;118.99
75799;DHT22;65035;44.726;37.764;2023-02-17T01:02:00;17.52;118.99
75799;DHT22;65035;44.726;37.764;2023-02-17T01:03:04;17.51;118.99
75799;DHT22;65035;44.726;37.764;2023-02-17T01:04:07;17.50;118.99
75799;DHT22;65035;44.726;37.764;2023-02-17T01:05:09;17.50;118.99
75799;DHT22;65035;44.726;37.764;2023-02-17T01:06:21;17.50;118.99
75799;DHT22;65035;44.726;37.764;2023-02-17T01:07:24;17.51;118.99
75799;DHT22;65035;44.726;37.764;2023-02-17T01:08:27;17.52;118.99
75799;DHT22;65035;44.726;37.764;2023-02-17T01:09:31;17.52;118.99
75799;DHT22;65035;44.726;37.764;2023-02-17T01:10:38;17.51;118.99
75799;DHT22;65035;44.726;37.764;2023-02-17T01:11:41;17.52;118.99
75799;DHT22;65035;44.726;37.764;2023-02-17T01:12:44;17.52;118.99
75799;DHT22;65035;44.726;37.764;2023-02-17T01:13:47;17.50;118.99
75799;DHT22;65035;44.726;37.764;2023-02-17T01:14:50;17.51;118.99
75799;DHT22;65035;44.726;37.764;2023-02-17T01:15:53;17.52;118.99
75799;DHT22;65035;44.726;37.764;2023-02-17T01:16:56;17.50;118.99
75799;DHT22;65035;44.726;37.764;2023-02-17T01:17:59;17.50;118.99
75799;DHT22;65035;44.726;37.764;2023-02-17T01:19:04;17.49;118.99
75799;DHT22;65035;44.726;37.764;2023-02-17T01:20:07;17.50;118.99
75799;DHT22;65035;44.726;37.764;2023-02-17T01:21:21;17.51;118.99
75799;DHT22;65035;44.726;37.764;2023-02-17T01:22:24;17.50;118.99
75799;DHT22;65035;44.726;37.764;2023-02-17T01:23:29;17.52;118.99
75799;DHT22;65035;44.726;37.764;2023-02-17T01:24:32;17.49;118.99
75799;DHT22;65035;44.726;37.764;2023-02-17T01:25:38;17.50;118.99
75799;DHT22;65035;44.726;37.764;2023-02-17T01:26:42;17.48;118.99
75799;DHT22;65035;44.726;37.764;2023-02-17T01:27:44;17.49;118.99
75799;DHT22;65035;44.726;37.764;2023-02-17T01:28:50;17.51;118.99
75799;DHT22;65035;44.726;37.764;2023-02-17T01:29:53;17.48;118.99
75799;DHT22;65035;44.726;37.764;2023-02-17T01:30:56;17.49;118.99
75799;DHT22;65035;44.726;37.764;2023-02-17T01:31:59;17.49;118.99
75799;DHT22;65035;44.726;37.764;2023-02-17T01:33:02;17.48;118.99
75799;DHT22;65035;44.726;37.764;2023-02-17T01:34:05;17.50;118.99
75799;DHT22;65035;44.726;37.764;2023-02-17T01:35:11;17.47;118.99
75799;DHT22;65035;44.726;37.764;2023-02-17T01:36:18;17.49;118.99
75799;DHT22;65035;44.726;37.764;2023-02-17T01:37:21;17.49;118.99
75799;DHT22;65035;44.726;37.764;2023-02-17T01:38:24;17.50;118.99
75799;DHT22;65035;44.726;37.764;2023-02-17T01:39:27;17.49;118.99
75799;DHT22;65035;44.726;37.764;2023-02-17T01:40:30;17.48;118.99
75799;DHT22;65035;44.726;37.764;2023-02-17T01:41:33;17.49;118.99
75799;DHT22;65035;44.726;37.764;2023-02-17T01:42:35;17.48;118.99
75799;DHT22;65035;44.726;37.764;2023-02-17T01:43:38;17.46;118.99
75799;DHT22;65035;44.726;37.764;2023-02-17T01:46:20;17.46;118.99
75799;DHT22;65035;44.726;37.764;2023-02-17T01:47:22;17.49;118.99
75799;DHT22;65035;44.726;37.764;2023-02-17T01:48:45;17.50;118.99
75799;DHT22;65035;44.726;37.764;2023-02-17T01:49:50;17.46;118.99
75799;DHT22;65035;44.726;37.764;2023-02-17T01:51:16;17.47;118.99
75799;DHT22;65035;44.726;37.764;2023-02-17T01:52:20;17.49;118.99
75799;DHT22;65035;44.726;37.764;2023-02-17T01:53:31;17.47;118.99
75799;DHT22;65035;44.726;37.764;2023-02-17T01:54:58;17.48;118.99
75799;DHT22;65035;44.726;37.764;2023-02-17T01:56:02;17.46;118.99
75799;DHT22;65035;44.726;37.764;2023-02-17T01:57:06;17.46;118.99
75799;DHT22;65035;44.726;37.764;2023-02-17T01:58:11;17.47;118.99
75799;DHT22;65035;44.726;37.764;2023-02-17T01:59:19;17.46;118.99
75799;DHT22;65035;44.726;37.764;2023-02-17T02:00:25;17.47;118.99
75799;DHT22;65035;44.726;37.764;2023-02-17T02:01:29;17.48;118.99
75799;DHT22;65035;44.726;37.764;2023-02-17T02:02:33;17.48;118.99
75799;DHT22;65035;44.726;37.764;2023-02-17T02:03:36;17.48;118.99
75799;DHT22;65035;44.726;37.764;2023-02-17T02:04:42;17.46;118.99
75799;DHT22;65035;44.726;37.764;2023-02-17T02:05:46;17.48;118.99
75799;DHT22;65035;44.726;37.764;2023-02-17T02:06:49;17.47;118.99
75799;DHT22;65035;44.726;37.764;2023-02-17T02:07:52;17.47;118.99
75799;DHT22;65035;44.726;37.764;2023-02-17T02:09:02;17.46;118.99
75799;DHT22;65035;44.726;37.764;2023-02-17T02:10:07;17.46;118.99
75799;DHT22;65035;44.726;37.764;2023-02-17T02:11:10;17.45;118.99
75799;DHT22;65035;44.726;37.764;2023-02-17T02:12:24;17.45;118.99
75799;DHT22;65035;44.726;37.764;2023-02-17T02:13:27;17.43;118.99
75799;DHT22;65035;44.726;37.764;2023-02-17T02:14:51;17.43;118.99
75799;DHT22;65035;44.726;37.764;2023-02-17T02:16:04;17.45;118.99
75799;DHT22;65035;44.726;37.764;2023-02-17T02:27:44;17.44;118.99
75799;DHT22;65035;44.726;37.764;2023-02-17T02:28:59;17.41;118.99
75799;DHT22;65035;44.726;37.764;2023-02-17T02:32:48;17.41;118.99
75799;DHT22;65035;44.726;37.764;2023-02-17T02:33:55;17.41;118.99
75799;DHT22;65035;44.726;37.764;2023-02-17T02:38:18;17.41;118.99
75799;DHT22;65035;44.726;37.764;2023-02-17T02:39:26;17.44;118.99
75799;DHT22;65035;44.726;37.764;2023-02-17T02:40:34;17.40;118.99
75799;DHT22;65035;44.726;37.764;2023-02-17T02:41:56;17.41;118.99
75799;DHT22;65035;44.726;37.764;2023-02-17T02:43:01;17.39;118.99
75799;DHT22;65035;44.726;37.764;2023-02-17T02:44:07;17.41;118.99
75799;DHT22;65035;44.726;37.764;2023-02-17T02:45:11;17.40;118.99
75799;DHT22;65035;44.726;37.764;2023-02-17T02:46:15;17.41;118.99
75799;DHT22;65035;44.726;37.764;2023-02-17T02:48:32;17.38;118.99
75799;DHT22;65035;44.726;37.764;2023-02-17T02:49:35;17.37;118.99
75799;DHT22;65035;44.726;37.764;2023-02-17T02:52:16;17.43;118.99
75799;DHT22;65035;44.726;37.764;2023-02-17T02:54:33;17.41;118.99
75799;DHT22;65035;44.726;37.764;2023-02-17T02:58:23;17.36;118.99
75799;DHT22;65035;44.726;37.764;2023-02-17T03:01:25;17.40;118.99
75799;DHT22;65035;44.726;37.764;2023-02-17T03:02:46;17.38;118.99
75799;DHT22;65035;44.726;37.764;2023-02-17T03:05:24;17.39;118.99
75799;DHT22;65035;44.726;37.764;2023-02-17T03:06:51;17.37;118.99
75799;DHT22;65035;44.726;37.764;2023-02-17T03:08:03;17.39;118.99
75799;DHT22;65035;44.726;37.764;2023-02-17T03:09:13;17.40;118.99
75799;DHT22;65035;44.726;37.764;2023-02-17T03:10:20;17.39;118.99
75799;DHT22;65035;44.726;37.764;2023-02-17T03:11:24;17.37;118.99
75799;DHT22;65035;44.726;37.764;2023-02-17T03:12:38;17.37;118.99
75799;DHT22;65035;44.726;37.764;2023-02-17T03:13:40;17.36;118.99
75799;DHT22;65035;44.726;37.764;2023-02-17T03:14:49;17.39;118.99
75799;DHT22;65035;44.726;37.764;2023-02-17T03:15:54;17.39;118.99
75799;DHT22;65035;44.726;37.764;2023-02-17T03:16:57;17.38;118.99
75799;DHT22;65035;44.726;37.764;2023-02-17T03:18:02;17.38;118.99
75799;DHT22;65035;44.726;37.764;2023-02-17T03:19:05;17.38;118.99
75799;DHT22;65035;44.726;37.764;2023-02-17T03:20:09;17.37;118.99
75799;DHT22;65035;44.726;37.764;2023-02-17T03:21:15;17.39;118.99
75799;DHT22;65035;44.726;37.764;2023-02-17T03:22:22;17.38;118.99
75799;DHT22;65035;44.726;37.764;2023-02-17T03:23:25;17.37;118.99
75799;DHT22;65035;44.726;37.764;2023-02-17T03:24:28;17.39;118.99
75799;DHT22;65035;44.726;37.764;2023-02-17T03:25:31;17.35;118.99
75799;DHT22;65035;44.726;37.764;2023-02-17T03:26:34;17.39;118.99
75799;DHT22;65035;44.726;37.764;2023-02-17T03:27:37;17.37;118.99
75799;DHT22;65035;44.726;37.764;2023-02-17T03:28:40;17.36;118.99
75799;DHT22;65035;44.726;37.764;2023-02-17T03:29:43;17.36;118.99
75799;DHT22;65035;44.726;37.764;2023-02-17T03:30:46;17.36;118.99
75799;DHT22;65035;44.726;37.764;2023-02-17T03:31:49;17.38;118.99
75799;DHT22;65035;44.726;37.764;2023-02-17T03:32:52;17.36;118.99
75799;DHT22;65035;44.726;37.764;2023-02-17T03:33:55;17.37;118.99
75799;DHT22;65035;44.726;37.764;2023-02-17T03:34:58;17.37;118.99
75799;DHT22;65035;44.726;37.764;2023-02-17T03:36:01;17.38;118.99
75799;DHT22;65035;44.726;37.764;2023-02-17T03:37:03;17.37;118.99
75799;DHT22;65035;44.726;37.764;2023-02-17T03:38:06;17.38;118.99
75799;DHT22;65035;44.726;37.764;2023-02-17T03:39:09;17.37;118.99
75799;DHT22;65035;44.726;37.764;2023-02-17T03:40:12;17.39;118.99
75799;DHT22;65035;44.726;37.764;2023-02-17T03:41:15;17.38;118.99
75799;DHT22;65035;44.726;37.764;2023-02-17T03:42:20;17.37;118.99
75799;DHT22;65035;44.726;37.764;2023-02-17T03:43:37;17.37;118.99
75799;DHT22;65035;44.726;37.764;2023-02-17T03:44:40;17.38;118.99
75799;DHT22;65035;44.726;37.764;2023-02-17T03:45:42;17.39;118.99
75799;DHT22;65035;44.726;37.764;2023-02-17T03:46:45;17.39;118.99
75799;DHT22;65035;44.726;37.764;2023-02-17T03:47:48;17.38;118.99
75799;DHT22;65035;44.726;37.764;2023-02-17T03:48:51;17.39;118.99
75799;DHT22;65035;44.726;37.764;2023-02-17T03:49:54;17.41;118.99
75799;DHT22;65035;44.726;37.764;2023-02-17T03:50:57;17.43;118.99
75799;DHT22;65035;44.726;37.764;2023-02-17T03:52:00;17.45;118.99
75799;DHT22;65035;44.726;37.764;2023-02-17T03:53:02;17.46;118.99
75799;DHT22;65035;44.726;37.764;2023-02-17T03:54:06;17.45;118.99
75799;DHT22;65035;44.726;37.764;2023-02-17T03:55:12;17.48;118.99
75799;DHT22;65035;44.726;37.764;2023-02-17T03:56:15;17.47;118.99
75799;DHT22;65035;44.726;37.764;2023-02-17T03:57:18;17.48;118.99
75799;DHT22;65035;44.726;37.764;2023-02-17T03:58:21;17.51;118.99
75799;DHT22;65035;44.726;37.764;2023-02-17T03:59:24;17.49;118.99
75799;DHT22;65035;44.726;37.764;2023-02-17T04:00:26;17.49;118.99
75799;DHT22;65035;44.726;37.764;2023-02-17T04:01:29;17.52;118.99
75799;DHT22;65035;44.726;37.764;2023-02-17T04:02:32;17.52;118.99
75799;DHT22;65035;44.726;37.764;2023-02-17T04:03:36;17.51;118.99
75799;DHT22;65035;44.726;37.764;2023-02-17T04:04:39;17.52;118.99
75799;DHT22;65035;44.726;37.764;2023-02-17T04:05:43;17.52;118.99
75799;DHT22;65035;44.726;37.764;2023-02-17T04:06:46;17.54;118.99
75799;DHT22;65035;44.726;37.764;2023-02-17T04:07:49;17.51;118.99
75799;DHT22;65035;44.726;37.764;2023-02-17T04:08:54;17.54;118.99
75799;DHT22;65035;44.726;37.764;2023-02-17T04:10:15;17.52;118.99
75799;DHT22;65035;44.726;37.764;2023-02-17T04:11:18;17.47;118.99
75799;DHT22;65035;44.726;37.764;2023-02-17T04:12:21;17.47;118.99
75799;DHT22;65035;44.726;37.764;2023-02-17T04:13:24;17.46;118.99
75799;DHT22;65035;44.726;37.764;2023-02-17T04:14:27;17.39;118.99
75799;DHT22;65035;44.726;37.764;2023-02-17T04:15:30;17.39;118.99
75799;DHT22;65035;44.726;37.764;2023-02-17T04:16:32;17.36;118.99
75799;DHT22;65035;44.726;37.764;2023-02-17T04:17:36;17.35;118.99
75799;DHT22;65035;44.726;37.764;2023-02-17T04:18:39;17.35;118.99
75799;DHT22;65035;44.726;37.764;2023-02-17T04:19:42;17.31;118.99
75799;DHT22;65035;44.726;37.764;2023-02-17T04:20:49;17.29;118.99
75799;DHT22;65035;44.726;37.764;2023-02-17T04:21:52;17.26;118.99
75799;DHT22;65035;44.726;37.764;2023-02-17T04:22:55;17.24;118.99
75799;DHT22;65035;44.726;37.764;2023-02-17T04:24:01;17.20;118.99
75799;DHT22;65035;44.726;37.764;2023-02-17T04:25:05;17.19;118.99
75799;DHT22;65035;44.726;37.764;2023-02-17T04:26:08;17.18;118.99
75799;DHT22;65035;44.726;37.764;2023-02-17T04:27:10;17.15;118.99
75799;DHT22;65035;44.726;37.764;2023-02-17T04:28:15;17.09;118.99
75799;DHT22;65035;44.726;37.764;2023-02-17T04:29:18;17.07;118.99
75799;DHT22;65035;44.726;37.764;2023-02-17T04:30:21;17.03;118.99
75799;DHT22;65035;44.726;37.764;2023-02-17T04:31:24;17.00;118.99
75799;DHT22;65035;44.726;37.764;2023-02-17T04:32:29;16.94;118.99
75799;DHT22;65035;44.726;37.764;2023-02-17T04:33:32;16.90;118.99
75799;DHT22;65035;44.726;37.764;2023-02-17T04:34:35;16.87;118.99
75799;DHT22;65035;44.726;37.764;2023-02-17T04:35:38;16.85;118.99
75799;DHT22;65035;44.726;37.764;2023-02-17T04:36:41;16.82;118.99
75799;DHT22;65035;44.726;37.764;2023-02-17T04:37:45;16.78;118.99
75799;DHT22;65035;44.726;37.764;2023-02-17T04:38:48;16.74;118.99
75799;DHT22;65035;44.726;37.764;2023-02-17T04:39:51;16.70;118.99
75799;DHT22;65035;44.726;37.764;2023-02-17T04:40:55;16.70;118.99
75799;DHT22;65035;44.726;37.764;2023-02-17T04:41:58;16.66;118.99
75799;DHT22;65035;44.726;37.764;2023-02-17T04:43:02;16.63;118.99
75799;DHT22;65035;44.726;37.764;2023-02-17T04:44:05;16.60;118.99
75799;DHT22;65035;44.726;37.764;2023-02-17T04:45:08;16.57;118.99
75799;DHT22;65035;44.726;37.764;2023-02-17T04:46:11;16.54;118.99
75799;DHT22;65035;44.726;37.764;2023-02-17T04:47:14;16.50;118.99
75799;DHT22;65035;44.726;37.764;2023-02-17T04:48:17;16.49;118.99
75799;DHT22;65035;44.726;37.764;2023-02-17T04:49:20;16.47;118.99
75799;DHT22;65035;44.726;37.764;2023-02-17T04:50:23;16.47;118.99
75799;DHT22;65035;44.726;37.764;2023-02-17T04:51:26;16.45;118.99
75799;DHT22;65035;44.726;37.764;2023-02-17T04:52:29;16.40;118.99
75799;DHT22;65035;44.726;37.764;2023-02-17T04:53:32;16.40;118.99
75799;DHT22;65035;44.726;37.764;2023-02-17T04:54:35;16.37;118.99
75799;DHT22;65035;44.726;37.764;2023-02-17T04:55:37;16.37;118.99
75799;DHT22;65035;44.726;37.764;2023-02-17T04:56:40;16.35;118.99
75799;DHT22;65035;44.726;37.764;2023-02-17T04:57:43;16.33;118.99
75799;DHT22;65035;44.726;37.764;2023-02-17T04:58:46;16.28;118.99
75799;DHT22;65035;44.726;37.764;2023-02-17T04:59:49;16.30;118.99
75799;DHT22;65035;44.726;37.764;2023-02-17T05:00:52;16.28;118.99
75799;DHT22;65035;44.726;37.764;2023-02-17T05:01:54;16.25;118.99
75799;DHT22;65035;44.726;37.764;2023-02-17T05:02:57;16.22;118.99
75799;DHT22;65035;44.726;37.764;2023-02-17T05:04:00;16.24;118.99
75799;DHT22;65035;44.726;37.764;2023-02-17T05:05:03;16.20;118.99
75799;DHT22;65035;44.726;37.764;2023-02-17T05:06:06;16.19;118.99
75799;DHT22;65035;44.726;37.764;2023-02-17T05:07:09;16.16;118.99
75799;DHT22;65035;44.726;37.764;2023-02-17T05:08:12;16.16;118.99
75799;DHT22;65035;44.726;37.764;2023-02-17T05:09:15;16.16;118.99
75799;DHT22;65035;44.726;37.764;2023-02-17T05:10:18;16.12;118.99
75799;DHT22;65035;44.726;37.764;2023-02-17T05:11:21;16.13;118.99
75799;DHT22;65035;44.726;37.764;2023-02-17T05:12:24;16.10;118.99
75799;DHT22;65035;44.726;37.764;2023-02-17T05:13:27;16.10;118.99
75799;DHT22;65035;44.726;37.764;2023-02-17T05:14:30;16.06;118.99
75799;DHT22;65035;44.726;37.764;2023-02-17T05:15:32;16.03;118.99
75799;DHT22;65035;44.726;37.764;2023-02-17T05:16:36;16.04;118.99
75799;DHT22;65035;44.726;37.764;2023-02-17T05:17:39;16.01;118.99
75799;DHT22;65035;44.726;37.764;2023-02-17T05:18:42;16.02;118.99
75799;DHT22;65035;44.726;37.764;2023-02-17T05:19:45;15.99;118.99
75799;DHT22;65035;44.726;37.764;2023-02-17T05:20:47;15.99;118.99
75799;DHT22;65035;44.726;37.764;2023-02-17T05:21:50;15.97;118.99
75799;DHT22;65035;44.726;37.764;2023-02-17T05:22:53;15.98;118.99
75799;DHT22;65035;44.726;37.764;2023-02-17T05:23:56;15.96;118.99
75799;DHT22;65035;44.726;37.764;2023-02-17T05:24:59;15.93;118.99
75799;DHT22;65035;44.726;37.764;2023-02-17T05:26:02;15.92;118.99
75799;DHT22;65035;44.726;37.764;2023-02-17T05:27:05;15.91;118.99
75799;DHT22;65035;44.726;37.764;2023-02-17T05:28:08;15.90;118.99
75799;DHT22;65035;44.726;37.764;2023-02-17T05:29:11;15.89;118.99
75799;DHT22;65035;44.726;37.764;2023-02-17T05:30:15;15.87;118.99
75799;DHT22;65035;44.726;37.764;2023-02-17T05:31:18;15.86;118.99
75799;DHT22;65035;44.726;37.764;2023-02-17T05:32:22;15.84;118.99
75799;DHT22;65035;44.726;37.764;2023-02-17T05:33:25;15.85;118.99
75799;DHT22;65035;44.726;37.764;2023-02-17T05:34:28;15.81;118.99
75799;DHT22;65035;44.726;37.764;2023-02-17T05:35:33;15.83;118.99
75799;DHT22;65035;44.726;37.764;2023-02-17T05:36:36;15.81;118.99
75799;DHT22;65035;44.726;37.764;2023-02-17T05:37:39;15.80;118.99
75799;DHT22;65035;44.726;37.764;2023-02-17T05:38:42;15.77;118.99
75799;DHT22;65035;44.726;37.764;2023-02-17T05:39:47;15.76;118.99
75799;DHT22;65035;44.726;37.764;2023-02-17T05:40:50;15.75;118.99
75799;DHT22;65035;44.726;37.764;2023-02-17T05:41:53;15.74;118.99
75799;DHT22;65035;44.726;37.764;2023-02-17T05:42:57;15.74;118.99
75799;DHT22;65035;44.726;37.764;2023-02-17T05:44:00;15.73;118.99
75799;DHT22;65035;44.726;37.764;2023-02-17T05:45:03;15.71;118.99
75799;DHT22;65035;44.726;37.764;2023-02-17T05:46:07;15.69;118.99
75799;DHT22;65035;44.726;37.764;2023-02-17T05:47:10;15.68;118.99
75799;DHT22;65035;44.726;37.764;2023-02-17T05:48:13;15.66;118.99
75799;DHT22;65035;44.726;37.764;2023-02-17T05:49:16;15.67;118.99
75799;DHT22;65035;44.726;37.764;2023-02-17T05:50:19;15.66;118.99
75799;DHT22;65035;44.726;37.764;2023-02-17T05:51:26;15.63;118.99
75799;DHT22;65035;44.726;37.764;2023-02-17T05:52:29;15.62;118.99
75799;DHT22;65035;44.726;37.764;2023-02-17T05:53:32;15.62;118.99
75799;DHT22;65035;44.726;37.764;2023-02-17T05:54:34;15.63;118.99
75799;DHT22;65035;44.726;37.764;2023-02-17T05:55:37;15.61;118.99
75799;DHT22;65035;44.726;37.764;2023-02-17T05:56:40;15.61;118.99
75799;DHT22;65035;44.726;37.764;2023-02-17T05:57:43;15.59;118.99
75799;DHT22;65035;44.726;37.764;2023-02-17T05:58:46;15.59;118.99
75799;DHT22;65035;44.726;37.764;2023-02-17T05:59:49;15.58;118.99
75799;DHT22;65035;44.726;37.764;2023-02-17T06:00:52;15.58;118.99
75799;DHT22;65035;44.726;37.764;2023-02-17T06:01:55;15.57;118.99
75799;DHT22;65035;44.726;37.764;2023-02-17T06:02:57;15.57;118.99
75799;DHT22;65035;44.726;37.764;2023-02-17T06:04:00;15.56;118.99
75799;DHT22;65035;44.726;37.764;2023-02-17T06:05:03;15.56;118.99
75799;DHT22;65035;44.726;37.764;2023-02-17T06:06:07;15.55;118.99
75799;DHT22;65035;44.726;37.764;2023-02-17T06:07:10;15.54;118.99
75799;DHT22;65035;44.726;37.764;2023-02-17T06:08:13;15.54;118.99
75799;DHT22;65035;44.726;37.764;2023-02-17T06:09:15;15.54;118.99
75799;DHT22;65035;44.726;37.764;2023-02-17T06:10:18;15.53;118.99
75799;DHT22;65035;44.726;37.764;2023-02-17T06:11:21;15.49;118.99
75799;DHT22;65035;44.726;37.764;2023-02-17T06:12:24;15.52;118.99
75799;DHT22;65035;44.726;37.764;2023-02-17T06:13:27;15.51;118.99
75799;DHT22;65035;44.726;37.764;2023-02-17T06:14:30;15.49;118.99
75799;DHT22;65035;44.726;37.764;2023-02-17T06:15:33;15.49;118.99
75799;DHT22;65035;44.726;37.764;2023-02-17T06:16:36;15.46;118.99
75799;DHT22;65035;44.726;37.764;2023-02-17T06:17:39;15.48;118.99
75799;DHT22;65035;44.726;37.764;2023-02-17T06:18:41;15.48;118.99
75799;DHT22;65035;44.726;37.764;2023-02-17T06:19:44;15.42;118.99
75799;DHT22;65035;44.726;37.764;2023-02-17T06:20:47;15.46;118.99
75799;DHT22;65035;44.726;37.764;2023-02-17T06:21:50;15.46;118.99
75799;DHT22;65035;44.726;37.764;2023-02-17T06:22:53;15.47;118.99
75799;DHT22;65035;44.726;37.764;2023-02-17T06:23:56;15.45;118.99
75799;DHT22;65035;44.726;37.764;2023-02-17T06:24:59;15.44;118.99
75799;DHT22;65035;44.726;37.764;2023-02-17T06:26:02;15.40;118.99
75799;DHT22;65035;44.726;37.764;2023-02-17T06:27:05;15.42;118.99
75799;DHT22;65035;44.726;37.764;2023-02-17T06:28:08;15.40;118.99
75799;DHT22;65035;44.726;37.764;2023-02-17T06:29:11;15.39;118.99
75799;DHT22;65035;44.726;37.764;2023-02-17T06:30:14;15.37;118.99
75799;DHT22;65035;44.726;37.764;2023-02-17T06:31:17;15.37;118.99
75799;DHT22;65035;44.726;37.764;2023-02-17T06:32:20;15.38;118.99
75799;DHT22;65035;44.726;37.764;2023-02-17T06:33:23;15.34;118.99
75799;DHT22;65035;44.726;37.764;2023-02-17T06:34:28;15.33;118.99
75799;DHT22;65035;44.726;37.764;2023-02-17T06:35:30;15.32;118.99
75799;DHT22;65035;44.726;37.764;2023-02-17T06:36:34;15.30;118.99
75799;DHT22;65035;44.726;37.764;2023-02-17T06:37:36;15.29;118.99
75799;DHT22;65035;44.726;37.764;2023-02-17T06:38:39;15.30;118.99
75799;DHT22;65035;44.726;37.764;2023-02-17T06:39:42;15.30;118.99
75799;DHT22;65035;44.726;37.764;2023-02-17T06:40:45;15.30;118.99
75799;DHT22;65035;44.726;37.764;2023-02-17T06:41:48;15.29;118.99
75799;DHT22;65035;44.726;37.764;2023-02-17T06:42:51;15.28;118.99
75799;DHT22;65035;44.726;37.764;2023-02-17T06:43:54;15.27;118.99
75799;DHT22;65035;44.726;37.764;2023-02-17T06:44:57;15.27;118.99
75799;DHT22;65035;44.726;37.764;2023-02-17T06:45:59;15.25;118.99
75799;DHT22;65035;44.726;37.764;2023-02-17T06:47:02;15.24;118.99
75799;DHT22;65035;44.726;37.764;2023-02-17T06:48:05;15.24;118.99
75799;DHT22;65035;44.726;37.764;2023-02-17T06:49:08;15.24;118.99
75799;DHT22;65035;44.726;37.764;2023-02-17T06:50:11;15.23;118.99
75799;DHT22;65035;44.726;37.764;2023-02-17T06:51:14;15.23;118.99
75799;DHT22;65035;44.726;37.764;2023-02-17T06:52:17;15.23;118.99
75799;DHT22;65035;44.726;37.764;2023-02-17T06:53:20;15.19;118.99
75799;DHT22;65035;44.726;37.764;2023-02-17T06:54:23;15.17;118.99
75799;DHT22;65035;44.726;37.764;2023-02-17T06:55:25;15.18;118.99
75799;DHT22;65035;44.726;37.764;2023-02-17T06:56:28;15.15;118.99
75799;DHT22;65035;44.726;37.764;2023-02-17T06:57:31;15.13;118.99
75799;DHT22;65035;44.726;37.764;2023-02-17T06:58:36;15.14;118.99
75799;DHT22;65035;44.726;37.764;2023-02-17T06:59:39;15.15;118.99
75799;DHT22;65035;44.726;37.764;2023-02-17T07:00:42;15.13;118.99
75799;DHT22;65035;44.726;37.764;2023-02-17T07:01:44;15.13;118.99